EST,Max TemperatureF,Mean TemperatureF,Min TemperatureF,Max Dew PointF,MeanDew PointF,Min DewpointF,Max Humidity, Mean Humidity, Min Humidity, Max Sea Level PressureIn, Mean Sea Level PressureIn, Min Sea Level PressureIn, Max VisibilityMiles, Mean VisibilityMiles, Min VisibilityMiles, Max Wind SpeedMPH, Mean Wind SpeedMPH, Max Gust SpeedMPH,PrecipitationIn, CloudCover, Events, WindDirDegrees
2013-11-1,82,75,68,72,69,64,100,88,58,29.98,29.84,29.75,10,8,2,15,6,21,0.89,4,,200
2013-11-2,73,62,50,64,54,46,100,73,38,29.97,29.82,29.75,10,9,5,9,2,,0.01,1,,282
2013-11-3,68,55,42,50,43,37,100,75,33,30.32,30.15,29.97,10,8,5,13,2,20,0.00,0,,12
2013-11-4,64,52,41,43,40,36,100,72,34,30.47,30.42,30.31,10,9,5,13,3,21,0.00,0,,38
2013-11-5,68,54,41,55,47,37,100,83,60,30.47,30.42,30.35,10,8,5,12,6,16,0.00,3,,12
2013-11-6,75,63,51,64,54,21,100,77,14,30.35,30.24,30.11,10,8,7,7,4,,0.00,5,,30
2013-11-7,77,68,57,64,55,32,100,69,32,30.11,30.02,29.94,10,8,0,17,2,24,0.00,5,,289
2013-11-8,62,48,35,41,36,32,100,64,32,30.31,30.25,30.10,10,8,5,16,7,22,0.00,0,,10
2013-11-9,64,48,33,52,41,34,100,79,39,30.37,30.31,30.24,10,8,4,5,0,,0.00,0,,56
2013-11-10,69,56,44,54,48,39,100,79,33,30.26,30.20,30.14,10,8,5,7,1,,0.00,0,,231
2013-11-11,64,53,42,46,40,34,100,67,37,30.32,30.24,30.18,10,9,7,12,3,17,0.00,1,,32
2013-11-12,73,55,37,48,40,34,100,70,27,30.40,30.14,30.02,10,8,5,23,4,37,0.03,2,,352
2013-11-13,50,40,30,36,28,23,93,70,35,30.54,30.48,30.39,10,9,7,16,8,22,0.00,1,,3
2013-11-14,60,42,24,36,30,23,100,73,25,30.52,30.44,30.35,10,9,5,6,0,,0.00,0,,292
2013-11-15,62,48,35,61,50,36,100,91,68,30.35,30.26,30.18,10,10,5,8,1,,0.00,5,,70
2013-11-16,77,64,51,63,51,27,100,71,18,30.24,30.20,30.15,10,8,1,8,1,,0.00,2,,36
2013-11-17,73,62,50,72,59,50,100,93,64,30.20,30.08,29.99,10,6,0,7,1,,0.00,6,,151
2013-11-18,82,71,60,73,54,36,100,52,29,29.99,29.90,29.81,10,8,4,9,6,17,0.01,5,,238
2013-11-19,62,52,42,39,34,32,76,50,32,30.23,30.10,29.95,10,10,7,15,6,23,0.00,0,,18
2013-11-20,57,49,41,43,39,34,81,64,51,30.36,30.31,30.22,10,9,7,13,7,20,0.00,5,,36
2013-11-21,68,59,50,54,48,43,88,70,59,30.42,30.37,30.34,10,8,7,12,6,16,0.00,7,,21
2013-11-22,77,65,53,68,59,50,100,81,41,30.36,30.26,30.15,10,9,7,10,2,,0.00,5,,213
2013-11-23,66,60,51,66,61,39,100,98,62,30.15,30.09,30.03,10,8,2,9,3,16,0.01,7,,318
2013-11-24,51,40,30,37,18,-11,75,44,8,30.53,30.38,30.15,10,9,5,22,8,29,0.00,0,,12
2013-11-25,50,37,24,30,21,12,86,53,29,30.57,30.47,30.30,10,10,7,10,3,17,0.00,2,,49
2013-11-26,69,55,41,68,47,25,100,88,49,30.30,29.93,29.58,10,8,3,16,5,26,0.78,8,Thunderstorm,108
2013-11-27,69,51,33,70,46,27,100,96,70,30.22,29.77,29.51,10,7,2,16,6,21,0.31,6,,293
2013-11-28,46,37,28,34,30,19,100,82,34,30.51,30.41,30.23,10,9,5,8,1,,0.00,0,,13
2013-11-29,57,42,28,36,31,21,100,74,31,30.56,30.51,30.47,10,10,7,9,1,,0.00,0,,27
2013-11-30,55,44,33,41,35,23,93,71,35,30.57,30.48,30.34,10,10,10,10,5,16,0.00,3,,16